Time,TemperatureF,DewpointF,PressureIn,WindDirection,WindDirectionDegrees,WindSpeedMPH,WindSpeedGustMPH,Humidity,HourlyPrecipIn,Conditions,Clouds,dailyrainin,SoftwareType,DateUTC
2013-02-24 00:00:00,16.9,12.7,29.90,SW,224,1.6,2.2,83,0.00,,,0.04,WUHU216HW,2013-02-24 06:00:00,
2013-02-24 00:10:00,16.9,12.7,29.90,SW,233,1.7,2.2,83,0.00,,,0.00,WUHU216HW,2013-02-24 06:10:00,
2013-02-24 00:20:00,16.7,12.5,29.91,WSW,238,1.5,2.0,83,0.00,,,0.00,WUHU216HW,2013-02-24 06:20:00,
2013-02-24 00:30:00,16.4,12.2,29.91,WSW,238,1.3,2.0,83,0.00,,,0.00,WUHU216HW,2013-02-24 06:30:00,
2013-02-24 00:40:00,16.4,12.5,29.92,SW,235,1.6,2.2,84,0.00,,,0.00,WUHU216HW,2013-02-24 06:40:00,
2013-02-24 00:50:00,16.4,12.5,29.92,SW,234,2.0,2.2,84,0.00,,,0.00,WUHU216HW,2013-02-24 06:50:00,
2013-02-24 01:00:00,16.4,12.5,29.92,SW,235,1.4,2.0,84,0.00,,,0.00,WUHU216HW,2013-02-24 07:00:00,
2013-02-24 01:10:00,16.9,13.0,29.93,WSW,253,1.7,4.2,84,0.00,,,0.00,WUHU216HW,2013-02-24 07:10:00,
2013-02-24 01:20:00,17.3,13.4,29.93,WSW,253,1.9,3.0,84,0.00,,,0.00,WUHU216HW,2013-02-24 07:20:00,
2013-02-24 01:30:00,17.5,13.6,29.93,WSW,246,1.8,3.4,84,0.00,,,0.00,WUHU216HW,2013-02-24 07:30:00,
2013-02-24 01:40:00,17.1,13.2,29.93,WSW,253,1.7,3.2,84,0.00,,,0.00,WUHU216HW,2013-02-24 07:40:00,
2013-02-24 01:50:00,17.5,13.6,29.93,WSW,250,2.1,3.7,84,0.00,,,0.00,WUHU216HW,2013-02-24 07:50:00,
2013-02-24 02:00:00,17.6,13.7,29.93,WSW,240,2.0,2.8,84,0.00,,,0.00,WUHU216HW,2013-02-24 08:00:00,
2013-02-24 02:10:00,17.8,13.9,29.94,SW,231,2.2,2.8,84,0.00,,,0.00,WUHU216HW,2013-02-24 08:10:00,
2013-02-24 02:20:00,18.0,14.1,29.94,SW,230,2.2,3.4,84,0.00,,,0.00,WUHU216HW,2013-02-24 08:20:00,
2013-02-24 02:30:00,18.2,14.3,29.93,SW,231,1.7,2.4,84,0.00,,,0.00,WUHU216HW,2013-02-24 08:30:00,
2013-02-24 02:40:00,18.4,14.5,29.93,SW,233,1.8,2.8,84,0.00,,,0.00,WUHU216HW,2013-02-24 08:40:00,
2013-02-24 02:50:00,18.7,14.8,29.93,SW,232,2.3,3.2,84,0.00,,,0.00,WUHU216HW,2013-02-24 08:50:00,
2013-02-24 03:00:00,18.9,14.9,29.93,SW,232,1.9,2.8,84,0.00,,,0.00,WUHU216HW,2013-02-24 09:00:00,
2013-02-24 03:10:00,19.1,15.1,29.94,SW,233,2.8,3.7,84,0.00,,,0.00,WUHU216HW,2013-02-24 09:10:00,
2013-02-24 03:20:00,19.3,15.3,29.94,WSW,238,1.8,3.0,84,0.00,,,0.00,WUHU216HW,2013-02-24 09:20:00,
2013-02-24 03:30:00,19.6,15.6,29.94,WSW,246,2.7,4.2,84,0.00,,,0.00,WUHU216HW,2013-02-24 09:30:00,
2013-02-24 03:40:00,19.8,15.8,29.94,West,260,3.0,4.2,84,0.00,,,0.00,WUHU216HW,2013-02-24 09:40:00,
2013-02-24 03:50:00,20.0,16.0,29.95,WSW,245,2.8,5.2,84,0.00,,,0.00,WUHU216HW,2013-02-24 09:50:00,
2013-02-24 04:00:00,20.2,16.2,29.95,West,265,2.5,3.7,84,0.00,,,0.00,WUHU216HW,2013-02-24 10:00:00,
2013-02-24 04:10:00,20.2,16.2,29.95,WSW,245,2.1,4.0,84,0.00,,,0.00,WUHU216HW,2013-02-24 10:10:00,
2013-02-24 04:20:00,20.0,16.0,29.95,WSW,245,2.2,3.7,84,0.00,,,0.00,WUHU216HW,2013-02-24 10:20:00,
2013-02-24 04:30:00,20.0,16.0,29.96,WSW,248,2.1,4.2,84,0.00,,,0.00,WUHU216HW,2013-02-24 10:30:00,
2013-02-24 04:40:00,19.8,15.8,29.96,WSW,251,1.7,2.8,84,0.00,,,0.00,WUHU216HW,2013-02-24 10:40:00,
2013-02-24 04:50:00,19.8,15.8,29.97,WSW,251,1.7,2.4,84,0.00,,,0.00,WUHU216HW,2013-02-24 10:50:00,
2013-02-24 05:00:00,20.0,16.0,29.97,WSW,252,1.8,3.0,84,0.00,,,0.00,WUHU216HW,2013-02-24 11:00:00,
2013-02-24 05:10:00,20.0,16.0,29.97,West,265,1.6,3.2,84,0.00,,,0.00,WUHU216HW,2013-02-24 11:10:00,
2013-02-24 05:20:00,20.2,16.2,29.97,WSW,253,2.0,3.0,84,0.00,,,0.00,WUHU216HW,2013-02-24 11:20:00,
2013-02-24 05:30:00,20.2,16.2,29.97,WSW,256,1.8,2.8,84,0.00,,,0.00,WUHU216HW,2013-02-24 11:30:00,
2013-02-24 05:40:00,20.2,16.2,29.98,WSW,249,1.7,3.0,84,0.00,,,0.00,WUHU216HW,2013-02-24 11:40:00,
2013-02-24 05:51:00,20.2,16.2,29.98,NW,311,0.9,2.8,84,0.00,,,0.00,WUHU216HW,2013-02-24 11:51:00,
2013-02-24 06:01:00,19.8,15.8,29.99,WSW,257,1.1,2.0,84,0.00,,,0.00,WUHU216HW,2013-02-24 12:01:00,
2013-02-24 06:11:00,19.1,15.1,29.99,WSW,243,0.6,1.0,84,0.00,,,0.00,WUHU216HW,2013-02-24 12:11:00,
2013-02-24 06:21:00,18.4,14.5,29.99,SW,234,1.6,2.4,84,0.00,,,0.00,WUHU216HW,2013-02-24 12:21:00,
2013-02-24 06:31:00,17.5,13.6,30.00,SW,228,2.2,3.2,84,0.00,,,0.00,WUHU216HW,2013-02-24 12:31:00,
2013-02-24 06:41:00,16.7,12.8,30.00,SW,233,1.5,3.0,84,0.00,,,0.00,WUHU216HW,2013-02-24 12:41:00,
2013-02-24 06:51:00,16.2,12.2,30.00,SW,225,1.2,1.4,84,0.00,,,0.00,WUHU216HW,2013-02-24 12:51:00,
2013-02-24 07:01:00,15.9,12.0,30.01,SW,225,1.5,2.2,84,0.00,,,0.00,WUHU216HW,2013-02-24 13:01:00,
2013-02-24 07:11:00,16.1,12.2,30.01,SW,225,0.7,1.0,84,0.00,,,0.00,WUHU216HW,2013-02-24 13:11:00,
2013-02-24 07:21:00,16.8,13.1,30.02,SW,225,0.8,1.2,85,0.00,,,0.00,WUHU216HW,2013-02-24 13:21:00,
2013-02-24 07:31:00,19.0,15.5,30.02,North,0,0.0,0.0,86,0.00,,,0.00,WUHU216HW,2013-02-24 13:31:00,
2013-02-24 07:41:00,21.6,18.2,30.02,SW,225,0.4,0.4,86,0.00,,,0.00,WUHU216HW,2013-02-24 13:41:00,
2013-02-24 07:51:00,21.8,18.1,30.03,SW,222,1.4,2.0,85,0.00,,,0.00,WUHU216HW,2013-02-24 13:51:00,
2013-02-24 08:01:00,22.1,18.1,30.03,SW,226,1.0,1.2,84,0.00,,,0.00,WUHU216HW,2013-02-24 14:01:00,
2013-02-24 08:11:00,24.6,20.5,30.03,WSW,248,0.5,0.8,84,0.00,,,0.00,WUHU216HW,2013-02-24 14:11:00,
2013-02-24 08:21:00,25.6,20.7,30.04,WSW,244,0.8,1.4,81,0.00,,,0.00,WUHU216HW,2013-02-24 14:21:00,
2013-02-24 08:31:00,26.5,21.3,30.04,SW,222,1.5,2.0,80,0.00,,,0.00,WUHU216HW,2013-02-24 14:31:00,
2013-02-24 08:41:00,27.8,22.3,30.04,SSW,209,0.8,1.4,79,0.00,,,0.00,WUHU216HW,2013-02-24 14:41:00,
2013-02-24 08:51:00,27.2,20.8,30.05,SW,231,2.3,3.7,76,0.00,,,0.00,WUHU216HW,2013-02-24 14:51:00,
2013-02-24 09:01:00,27.6,20.8,30.05,SW,233,2.0,4.0,75,0.00,,,0.00,WUHU216HW,2013-02-24 15:01:00,
2013-02-24 09:11:00,28.4,21.7,30.05,SW,227,1.4,2.4,75,0.00,,,0.00,WUHU216HW,2013-02-24 15:11:00,
2013-02-24 09:21:00,28.0,20.7,30.06,WSW,246,1.3,2.4,73,0.00,,,0.00,WUHU216HW,2013-02-24 15:21:00,
2013-02-24 09:31:00,28.0,20.6,30.06,West,269,1.9,3.7,73,0.00,,,0.00,WUHU216HW,2013-02-24 15:31:00,
2013-02-24 09:41:00,27.3,19.6,30.06,WNW,290,2.5,4.2,72,0.00,,,0.00,WUHU216HW,2013-02-24 15:41:00,
2013-02-24 09:51:00,27.9,20.2,30.06,WNW,297,1.8,3.0,72,0.00,,,0.00,WUHU216HW,2013-02-24 15:51:00,
2013-02-24 10:01:00,29.3,21.9,30.06,West,280,1.5,2.8,73,0.01,,,0.01,WUHU216HW,2013-02-24 16:01:00,
2013-02-24 10:11:00,26.4,18.7,30.06,NNW,334,1.3,2.8,72,0.01,,,0.01,WUHU216HW,2013-02-24 16:11:00,
2013-02-24 10:21:00,25.1,18.5,30.06,NNW,347,1.8,2.0,75,0.01,,,0.01,WUHU216HW,2013-02-24 16:21:00,
2013-02-24 10:31:00,26.0,19.4,30.06,NNW,342,1.1,2.0,75,0.01,,,0.01,WUHU216HW,2013-02-24 16:31:00,
2013-02-24 10:41:00,26.3,19.6,30.06,NW,317,1.0,2.0,75,0.01,,,0.01,WUHU216HW,2013-02-24 16:41:00,
2013-02-24 10:51:00,29.6,22.5,30.06,WSW,239,1.6,3.2,74,0.01,,,0.01,WUHU216HW,2013-02-24 16:51:00,
2013-02-24 11:01:00,31.0,23.5,30.06,West,276,1.2,2.4,73,0.01,,,0.03,WUHU216HW,2013-02-24 17:01:00,
2013-02-24 11:11:00,31.5,22.7,30.06,WSW,256,1.1,2.0,69,0.01,,,0.03,WUHU216HW,2013-02-24 17:11:00,
2013-02-24 11:21:00,30.5,22.1,30.07,WNW,302,1.7,3.0,70,0.01,,,0.03,WUHU216HW,2013-02-24 17:21:00,
2013-02-24 11:32:00,32.8,24.0,30.07,WNW,284,1.2,2.2,69,0.01,,,0.03,WUHU216HW,2013-02-24 17:32:00,
2013-02-24 11:42:00,33.0,24.5,30.08,WSW,243,2.5,4.2,70,0.02,,,0.03,WUHU216HW,2013-02-24 17:42:00,
2013-02-24 11:52:00,33.7,24.8,30.08,SW,235,2.3,3.4,69,0.02,,,0.03,WUHU216HW,2013-02-24 17:52:00,
2013-02-24 12:02:00,34.2,24.9,30.08,WSW,257,1.8,3.0,68,0.02,,,0.05,WUHU216HW,2013-02-24 18:02:00,
2013-02-24 12:12:00,35.1,26.2,30.07,SW,228,1.7,2.8,69,0.03,,,0.05,WUHU216HW,2013-02-24 18:12:00,
2013-02-24 12:22:00,36.0,26.3,30.08,WSW,246,1.7,2.8,67,0.03,,,0.05,WUHU216HW,2013-02-24 18:22:00,
2013-02-24 12:32:00,35.9,24.8,30.07,West,281,2.0,4.4,63,0.04,,,0.06,WUHU216HW,2013-02-24 18:32:00,
2013-02-24 12:42:00,33.3,21.9,30.07,NW,321,1.9,2.8,62,0.04,,,0.06,WUHU216HW,2013-02-24 18:42:00,
2013-02-24 12:52:00,32.1,23.0,30.07,NW,316,2.0,2.8,68,0.04,,,0.07,WUHU216HW,2013-02-24 18:52:00,
2013-02-24 13:02:00,31.5,22.0,30.07,NNW,333,1.7,3.2,67,0.03,,,0.07,WUHU216HW,2013-02-24 19:02:00,
2013-02-24 13:12:00,30.8,21.7,30.07,NW,321,1.9,2.8,68,0.02,,,0.07,WUHU216HW,2013-02-24 19:12:00,
2013-02-24 13:22:00,32.0,23.5,30.07,NW,307,2.0,2.4,70,0.03,,,0.08,WUHU216HW,2013-02-24 19:22:00,
2013-02-24 13:32:00,33.1,23.9,30.07,NW,306,1.9,3.4,68,0.02,,,0.08,WUHU216HW,2013-02-24 19:32:00,
2013-02-24 13:42:00,33.4,23.8,30.07,NW,311,2.7,3.7,67,0.01,,,0.08,WUHU216HW,2013-02-24 19:42:00,
2013-02-24 13:52:00,34.2,23.9,30.07,WNW,301,2.4,3.4,65,0.01,,,0.08,WUHU216HW,2013-02-24 19:52:00,
2013-02-24 14:02:00,33.6,23.3,30.07,NW,307,1.9,3.0,65,0.01,,,0.08,WUHU216HW,2013-02-24 20:02:00,
2013-02-24 14:12:00,33.8,24.2,30.07,WNW,286,1.9,2.8,67,0.00,,,0.08,WUHU216HW,2013-02-24 20:12:00,
2013-02-24 14:22:00,35.2,25.6,30.08,SW,230,2.0,2.8,67,0.00,,,0.08,WUHU216HW,2013-02-24 20:22:00,
2013-02-24 14:32:00,35.3,25.3,30.07,WSW,244,2.4,3.7,66,0.00,,,0.08,WUHU216HW,2013-02-24 20:32:00,
2013-02-24 14:42:00,35.3,25.3,30.07,WSW,247,2.3,3.0,66,0.00,,,0.08,WUHU216HW,2013-02-24 20:42:00,
2013-02-24 14:52:00,35.2,25.6,30.08,WSW,237,2.2,3.7,67,0.00,,,0.08,WUHU216HW,2013-02-24 20:52:00,
2013-02-24 15:02:00,35.0,25.4,30.07,WSW,247,2.0,3.2,67,0.00,,,0.08,WUHU216HW,2013-02-24 21:02:00,
2013-02-24 15:12:00,33.9,24.0,30.07,NW,304,1.7,3.0,66,0.00,,,0.08,WUHU216HW,2013-02-24 21:12:00,
2013-02-24 15:22:00,33.6,24.3,30.07,WNW,299,1.9,3.2,68,0.00,,,0.08,WUHU216HW,2013-02-24 21:22:00,
2013-02-24 15:32:00,32.7,23.8,30.07,NW,325,1.5,2.2,69,0.00,,,0.08,WUHU216HW,2013-02-24 21:32:00,
2013-02-24 15:42:00,32.6,23.8,30.07,NW,322,1.2,2.0,69,0.00,,,0.08,WUHU216HW,2013-02-24 21:42:00,
2013-02-24 15:52:00,32.2,23.7,30.07,NNW,329,1.3,2.8,70,0.00,,,0.08,WUHU216HW,2013-02-24 21:52:00,
2013-02-24 16:02:00,32.5,24.0,30.07,NW,313,1.7,2.4,70,0.00,,,0.08,WUHU216HW,2013-02-24 22:02:00,
2013-02-24 16:12:00,32.5,24.0,30.08,NW,304,1.8,2.8,70,0.00,,,0.08,WUHU216HW,2013-02-24 22:12:00,
2013-02-24 16:22:00,32.3,23.8,30.08,WNW,297,2.3,3.4,70,0.00,,,0.08,WUHU216HW,2013-02-24 22:22:00,
2013-02-24 16:32:00,31.8,24.0,30.08,NW,314,1.2,2.0,72,0.00,,,0.08,WUHU216HW,2013-02-24 22:32:00,
2013-02-24 16:42:00,31.2,23.1,30.08,NNW,341,1.2,1.8,71,0.00,,,0.08,WUHU216HW,2013-02-24 22:42:00,
2013-02-24 16:52:00,31.0,23.2,30.08,North,352,1.1,1.8,72,0.00,,,0.08,WUHU216HW,2013-02-24 22:52:00,
2013-02-24 17:03:00,30.6,23.1,30.08,NNW,338,0.8,1.2,73,0.00,,,0.08,WUHU216HW,2013-02-24 23:03:00,
2013-02-24 17:13:00,30.6,23.2,30.08,NNW,329,0.7,1.2,73,0.00,,,0.08,WUHU216HW,2013-02-24 23:13:00,
2013-02-24 17:23:00,30.2,23.1,30.08,NNW,338,0.3,0.4,74,0.00,,,0.08,WUHU216HW,2013-02-24 23:23:00,
2013-02-24 17:33:00,29.5,22.1,30.08,North,0,0.0,0.0,73,0.00,,,0.08,WUHU216HW,2013-02-24 23:33:00,
2013-02-24 17:43:00,28.4,21.3,30.08,North,0,0.5,0.8,74,0.00,,,0.08,WUHU216HW,2013-02-24 23:43:00,
2013-02-24 17:53:00,27.5,20.8,30.08,NNE,25,0.5,0.8,75,0.00,,,0.08,WUHU216HW,2013-02-24 23:53:00,
2013-02-24 18:03:00,26.5,19.8,30.08,NE,45,0.4,0.4,75,0.00,,,0.08,WUHU216HW,2013-02-25 00:03:00,
2013-02-24 18:13:00,25.9,19.5,30.09,NE,45,0.7,1.2,76,0.00,,,0.08,WUHU216HW,2013-02-25 00:13:00,
2013-02-24 18:23:00,25.7,19.6,30.09,ENE,68,1.1,1.2,77,0.00,,,0.08,WUHU216HW,2013-02-25 00:23:00,
2013-02-24 18:33:00,25.6,20.1,30.10,ENE,68,0.4,0.4,79,0.00,,,0.08,WUHU216HW,2013-02-25 00:33:00,
2013-02-24 18:43:00,25.0,19.5,30.10,North,0,0.0,0.0,79,0.00,,,0.08,WUHU216HW,2013-02-25 00:43:00,
2013-02-24 18:53:00,24.5,19.0,30.11,ENE,61,0.6,0.8,79,0.00,,,0.08,WUHU216HW,2013-02-25 00:53:00,
2013-02-24 19:03:00,24.8,19.6,30.11,NNE,32,0.7,1.2,80,0.00,,,0.08,WUHU216HW,2013-02-25 01:03:00,
2013-02-24 19:13:00,24.1,18.9,30.11,NNE,28,0.8,1.2,80,0.00,,,0.08,WUHU216HW,2013-02-25 01:13:00,
2013-02-24 19:23:00,24.1,18.9,30.11,NNE,23,0.5,0.8,80,0.00,,,0.08,WUHU216HW,2013-02-25 01:23:00,
2013-02-24 19:33:00,23.4,18.3,30.11,NE,52,0.7,1.0,80,0.00,,,0.08,WUHU216HW,2013-02-25 01:33:00,
2013-02-24 19:43:00,23.4,18.8,30.11,NE,40,0.9,1.2,82,0.00,,,0.08,WUHU216HW,2013-02-25 01:43:00,
2013-02-24 19:53:00,22.7,18.1,30.11,ENE,62,2.0,2.4,82,0.00,,,0.08,WUHU216HW,2013-02-25 01:53:00,
2013-02-24 20:03:00,22.1,18.1,30.11,NE,56,1.1,2.0,84,0.00,,,0.08,WUHU216HW,2013-02-25 02:03:00,
2013-02-24 20:13:00,21.8,17.5,30.11,NE,47,1.4,2.0,83,0.00,,,0.08,WUHU216HW,2013-02-25 02:13:00,
2013-02-24 20:23:00,21.6,17.3,30.10,East,84,1.1,1.8,83,0.00,,,0.08,WUHU216HW,2013-02-25 02:23:00,
2013-02-24 20:33:00,21.8,17.5,30.10,East,84,2.2,3.2,83,0.00,,,0.08,WUHU216HW,2013-02-25 02:33:00,
2013-02-24 20:43:00,21.2,16.9,30.10,ENE,75,0.8,1.8,83,0.00,,,0.08,WUHU216HW,2013-02-25 02:43:00,
2013-02-24 20:53:00,20.9,16.9,30.10,ENE,65,1.5,2.2,84,0.00,,,0.08,WUHU216HW,2013-02-25 02:53:00,
2013-02-24 21:03:00,20.7,16.7,30.11,ENE,58,1.0,1.2,84,0.00,,,0.08,WUHU216HW,2013-02-25 03:03:00,
2013-02-24 21:13:00,20.2,16.0,30.11,ENE,68,0.5,1.0,83,0.00,,,0.08,WUHU216HW,2013-02-25 03:13:00,
2013-02-24 21:23:00,20.5,16.5,30.11,ENE,68,0.8,1.2,84,0.00,,,0.08,WUHU216HW,2013-02-25 03:23:00,
2013-02-24 21:33:00,20.2,16.2,30.11,North,0,0.0,0.0,84,0.00,,,0.08,WUHU216HW,2013-02-25 03:33:00,
2013-02-24 21:43:00,20.2,16.2,30.11,ENE,57,1.1,1.2,84,0.00,,,0.08,WUHU216HW,2013-02-25 03:43:00,
2013-02-24 21:53:00,19.8,15.8,30.11,ENE,68,0.7,1.0,84,0.00,,,0.08,WUHU216HW,2013-02-25 03:53:00,
2013-02-24 22:03:00,18.9,14.9,30.12,North,0,0.0,0.0,84,0.00,,,0.08,WUHU216HW,2013-02-25 04:03:00,
2013-02-24 22:13:00,18.2,14.3,30.11,North,0,0.0,0.0,84,0.00,,,0.08,WUHU216HW,2013-02-25 04:13:00,
2013-02-24 22:23:00,18.4,15.0,30.11,North,0,1.0,1.2,86,0.00,,,0.08,WUHU216HW,2013-02-25 04:23:00,
2013-02-24 22:33:00,18.5,15.9,30.12,North,0,1.3,1.4,89,0.00,,,0.08,WUHU216HW,2013-02-25 04:33:00,
2013-02-24 22:44:00,17.1,14.2,30.12,NNW,338,0.4,0.4,88,0.00,,,0.08,WUHU216HW,2013-02-25 04:44:00,
2013-02-24 22:54:00,17.1,14.0,30.11,NNE,15,1.1,1.4,87,0.00,,,0.08,WUHU216HW,2013-02-25 04:54:00,
2013-02-24 23:04:00,17.8,14.7,30.12,NE,35,1.2,2.0,87,0.00,,,0.08,WUHU216HW,2013-02-25 05:04:00,
2013-02-24 23:14:00,17.6,14.5,30.12,ENE,68,1.0,1.4,87,0.00,,,0.08,WUHU216HW,2013-02-25 05:14:00,
2013-02-24 23:24:00,17.6,14.5,30.11,ENE,68,1.2,1.4,87,0.00,,,0.08,WUHU216HW,2013-02-25 05:24:00,
2013-02-24 23:34:00,17.3,14.4,30.11,ENE,68,1.0,1.4,88,0.00,,,0.08,WUHU216HW,2013-02-25 05:34:00,
2013-02-24 23:44:00,17.6,14.7,30.11,NNE,23,0.7,1.2,88,0.00,,,0.08,WUHU216HW,2013-02-25 05:44:00,
2013-02-24 23:54:00,18.0,15.4,30.11,NNE,18,0.7,1.0,89,0.00,,,0.08,WUHU216HW,2013-02-25 05:54:00,